createdAt,value
2022-12-17T00:01:44.236Z,3.44
2022-12-17T00:03:35.197Z,3.42
2022-12-17T00:05:26.612Z,3.43
2022-12-17T00:07:17.257Z,3.36
2022-12-17T00:09:08.091Z,3.42
2022-12-17T00:10:59.311Z,3.43
2022-12-17T00:12:49.734Z,3.44
2022-12-17T00:14:40.402Z,3.47
2022-12-17T00:16:31.166Z,3.45
2022-12-17T00:18:26.253Z,3.49
2022-12-17T00:20:16.959Z,3.44
2022-12-17T00:22:07.509Z,3.47
2022-12-17T00:23:58.418Z,3.50
2022-12-17T00:25:48.851Z,3.51
2022-12-17T00:27:39.318Z,3.53
2022-12-17T00:29:29.995Z,3.53
2022-12-17T00:31:20.847Z,3.55
2022-12-17T00:33:11.382Z,3.58
2022-12-17T00:35:02.094Z,3.59
2022-12-17T00:36:52.705Z,3.57
2022-12-17T00:38:43.304Z,3.58
2022-12-17T00:40:34.045Z,3.58
2022-12-17T00:42:24.708Z,3.57
2022-12-17T00:44:15.501Z,3.55
2022-12-17T00:46:06.225Z,3.56
2022-12-17T00:47:57.052Z,3.55
2022-12-17T00:49:47.655Z,3.56
2022-12-17T00:51:38.343Z,3.54
2022-12-17T00:53:29.248Z,3.50
2022-12-17T00:55:19.954Z,3.50
2022-12-17T00:57:10.773Z,3.49
2022-12-17T00:59:01.338Z,3.50
2022-12-17T01:00:52.083Z,3.49
2022-12-17T01:02:43.269Z,3.49
2022-12-17T01:04:33.957Z,3.49
2022-12-17T01:06:24.627Z,3.43
2022-12-17T01:08:15.710Z,3.41
2022-12-17T01:10:06.347Z,3.39
2022-12-17T01:11:57.488Z,3.36
2022-12-17T01:13:48.193Z,3.36
2022-12-17T01:15:41.548Z,3.42
2022-12-17T01:17:32.160Z,3.38
2022-12-17T01:19:22.744Z,3.39
2022-12-17T01:21:16.694Z,3.43
2022-12-17T01:23:07.237Z,3.39
2022-12-17T01:24:57.971Z,3.38
2022-12-17T01:26:48.665Z,3.38
2022-12-17T01:28:42.995Z,3.42
2022-12-17T01:30:33.570Z,3.39
2022-12-17T01:32:24.315Z,3.38
2022-12-17T01:34:15.046Z,3.39
2022-12-17T01:36:13.336Z,3.35
2022-12-17T01:38:04.108Z,3.33
2022-12-17T01:39:54.836Z,3.39
2022-12-17T01:41:45.454Z,3.40
2022-12-17T01:43:56.092Z,3.43
2022-12-17T01:45:55.451Z,3.41
2022-12-17T01:47:49.800Z,3.43
2022-12-17T01:49:42.250Z,3.44
2022-12-17T01:51:33.573Z,3.41
2022-12-17T01:53:25.673Z,3.42
2022-12-17T01:55:16.543Z,3.37
2022-12-17T01:57:07.238Z,3.41
2022-12-17T01:58:58.483Z,3.40
2022-12-17T02:00:49.324Z,3.38
2022-12-17T02:02:39.877Z,3.40
2022-12-17T02:04:30.645Z,3.40
2022-12-17T02:06:44.612Z,3.44
2022-12-17T02:08:56.744Z,3.42
2022-12-17T02:13:06.827Z,3.35
2022-12-17T02:15:05.285Z,3.37
2022-12-17T02:17:02.578Z,3.38
2022-12-17T02:18:59.136Z,3.38
2022-12-17T02:20:54.168Z,3.38
2022-12-17T02:23:23.831Z,3.38
2022-12-17T02:25:31.133Z,3.38
2022-12-17T02:27:25.029Z,3.38
2022-12-17T02:29:16.892Z,3.39
2022-12-17T02:31:07.696Z,3.41
2022-12-17T02:33:00.735Z,3.44
2022-12-17T02:34:51.466Z,3.43
2022-12-17T02:36:42.085Z,3.40
2022-12-17T02:38:37.670Z,3.43
2022-12-17T02:40:28.975Z,3.42
2022-12-17T02:42:19.708Z,3.41
2022-12-17T02:44:11.955Z,3.44
2022-12-17T02:46:02.700Z,3.44
2022-12-17T02:47:53.626Z,3.43
2022-12-17T02:49:44.388Z,3.42
2022-12-17T02:51:34.988Z,3.43
2022-12-17T02:53:26.269Z,3.45
2022-12-17T02:55:16.764Z,3.44
2022-12-17T02:58:39.322Z,3.41
2022-12-17T03:00:30.530Z,3.44
2022-12-17T03:02:21.020Z,3.46
2022-12-17T03:04:22.733Z,3.48
2022-12-17T03:06:13.251Z,3.45
2022-12-17T03:08:03.715Z,3.44
2022-12-17T03:09:54.452Z,3.45
2022-12-17T03:11:49.007Z,3.48
2022-12-17T03:13:42.847Z,3.54
2022-12-17T03:15:33.406Z,3.48
2022-12-17T03:17:24.010Z,3.48
2022-12-17T03:19:14.826Z,3.47
2022-12-17T03:21:05.339Z,3.45
2022-12-17T03:22:55.854Z,3.43
2022-12-17T03:24:46.376Z,3.36
2022-12-17T03:28:22.465Z,3.27
2022-12-17T03:30:12.784Z,3.29
2022-12-17T03:32:03.632Z,3.30
2022-12-17T03:33:54.418Z,3.29
2022-12-17T03:36:01.912Z,3.29
2022-12-17T03:37:52.685Z,3.25
2022-12-17T03:39:43.321Z,3.23
2022-12-17T03:41:34.170Z,3.16
2022-12-17T03:43:27.912Z,3.01
2022-12-17T03:45:18.026Z,2.99
2022-12-17T03:47:08.474Z,2.98
2022-12-17T03:48:59.589Z,2.98
2022-12-17T03:50:50.020Z,2.96
2022-12-17T03:52:40.525Z,2.96
2022-12-17T03:54:31.199Z,2.87
2022-12-17T03:56:21.550Z,2.81
2022-12-17T03:58:12.131Z,2.80
2022-12-17T04:00:02.774Z,2.80
2022-12-17T04:01:53.597Z,2.77
2022-12-17T04:03:44.377Z,2.79
2022-12-17T04:05:35.037Z,2.75
2022-12-17T04:07:25.802Z,2.80
2022-12-17T04:09:16.626Z,2.82
2022-12-17T04:11:07.341Z,2.77
2022-12-17T04:12:58.200Z,2.82
2022-12-17T04:14:48.986Z,2.83
2022-12-17T04:16:39.672Z,2.89
2022-12-17T04:18:30.296Z,2.92
2022-12-17T04:20:20.739Z,2.91
2022-12-17T04:22:11.081Z,2.88
2022-12-17T04:24:01.655Z,2.87
2022-12-17T04:25:52.436Z,2.85
2022-12-17T04:27:43.319Z,2.69
2022-12-17T04:29:33.985Z,2.67
2022-12-17T04:31:24.778Z,2.73
2022-12-17T04:33:15.265Z,2.68
2022-12-17T04:35:05.985Z,2.74
2022-12-17T04:36:56.626Z,2.77
2022-12-17T04:38:47.352Z,2.79
2022-12-17T04:40:37.887Z,2.84
2022-12-17T04:42:28.397Z,2.87
2022-12-17T04:44:20.148Z,2.89
2022-12-17T04:46:11.049Z,2.90
2022-12-17T04:48:01.452Z,2.92
2022-12-17T04:49:52.257Z,2.92
2022-12-17T04:51:42.929Z,2.93
2022-12-17T04:53:33.728Z,2.95
2022-12-17T04:55:24.832Z,2.97
2022-12-17T04:57:15.551Z,2.98
2022-12-17T04:59:06.013Z,3.00
2022-12-17T05:00:56.676Z,2.98
2022-12-17T05:02:47.400Z,3.00
2022-12-17T05:04:38.159Z,3.00
2022-12-17T05:06:29.328Z,3.04
2022-12-17T05:08:20.093Z,3.04
2022-12-17T05:10:24.621Z,3.07
2022-12-17T05:12:15.433Z,3.10
2022-12-17T05:14:06.164Z,3.13
2022-12-17T05:15:56.879Z,3.15
2022-12-17T05:17:47.574Z,3.15
2022-12-17T05:19:38.194Z,3.18
2022-12-17T05:21:33.168Z,3.20
2022-12-17T05:23:25.630Z,3.21
2022-12-17T05:25:16.517Z,3.20
2022-12-17T05:27:07.463Z,3.21
2022-12-17T05:28:58.479Z,3.21
2022-12-17T05:30:49.384Z,3.19
2022-12-17T05:32:39.758Z,3.14
2022-12-17T05:34:41.027Z,3.16
2022-12-17T05:36:31.769Z,3.13
2022-12-17T05:38:26.354Z,3.16
2022-12-17T05:40:16.889Z,3.19
2022-12-17T05:42:07.472Z,3.11
2022-12-17T05:43:57.726Z,3.08
2022-12-17T05:45:48.079Z,3.09
2022-12-17T05:47:38.627Z,3.06
2022-12-17T05:49:42.808Z,3.03
2022-12-17T05:51:38.346Z,3.03
2022-12-17T05:53:29.422Z,3.01
2022-12-17T05:55:19.936Z,3.04
2022-12-17T05:57:10.924Z,3.02
2022-12-17T05:58:47.134Z,3.02
2022-12-17T06:00:37.847Z,3.01
2022-12-17T06:02:28.551Z,3.02
2022-12-17T06:04:19.387Z,3.01
2022-12-17T06:06:14.333Z,3.04
2022-12-17T06:08:04.879Z,3.02
2022-12-17T06:09:55.389Z,3.02
2022-12-17T06:11:46.035Z,3.01
2022-12-17T06:13:36.968Z,3.00
2022-12-17T06:15:27.803Z,2.99
2022-12-17T06:17:18.547Z,2.99
2022-12-17T06:19:09.274Z,2.97
2022-12-17T06:21:00.487Z,2.98
2022-12-17T06:22:51.194Z,2.97
2022-12-17T06:24:45.913Z,2.97
2022-12-17T06:26:37.087Z,2.93
2022-12-17T06:28:27.657Z,2.96
2022-12-17T06:30:19.113Z,2.94
2022-12-17T06:32:09.951Z,2.96
2022-12-17T06:34:00.832Z,2.97
2022-12-17T06:35:51.686Z,2.99
2022-12-17T06:37:42.402Z,2.99
2022-12-17T06:39:33.267Z,2.99
2022-12-17T06:41:23.980Z,2.99
2022-12-17T06:43:15.688Z,3.05
2022-12-17T06:45:06.384Z,3.06
2022-12-17T06:46:56.839Z,3.08
2022-12-17T06:48:47.469Z,3.13
2022-12-17T06:50:37.968Z,3.15
2022-12-17T06:52:28.400Z,3.21
2022-12-17T06:54:19.165Z,3.27
2022-12-17T06:56:10.341Z,3.31
2022-12-17T06:58:01.119Z,3.36
2022-12-17T06:59:51.841Z,3.42
2022-12-17T07:01:42.597Z,3.45
2022-12-17T07:03:33.445Z,3.53
2022-12-17T07:05:24.432Z,3.49
2022-12-17T07:07:14.968Z,3.54
2022-12-17T07:09:06.104Z,3.62
2022-12-17T07:10:56.684Z,3.70
2022-12-17T07:12:47.808Z,3.77
2022-12-17T07:14:38.696Z,3.79
2022-12-17T07:16:29.156Z,3.89
2022-12-17T07:18:21.751Z,4.01
2022-12-17T07:20:12.566Z,4.07
2022-12-17T07:22:03.260Z,3.89
2022-12-17T07:23:53.850Z,3.82
2022-12-17T07:25:46.254Z,3.79
2022-12-17T07:27:37.061Z,3.70
2022-12-17T07:29:27.773Z,3.59
2022-12-17T07:31:18.545Z,3.50
2022-12-17T07:33:20.287Z,3.63
2022-12-17T07:35:10.908Z,3.70
2022-12-17T07:37:01.686Z,3.71
2022-12-17T07:38:52.522Z,3.80
2022-12-17T07:40:43.055Z,3.95
2022-12-17T07:42:34.239Z,4.07
2022-12-17T07:44:25.004Z,4.08
2022-12-17T07:46:15.707Z,4.15
2022-12-17T07:48:13.441Z,4.29
2022-12-17T07:50:03.917Z,4.30
2022-12-17T07:51:54.406Z,4.31
2022-12-17T07:53:45.105Z,4.38
2022-12-17T07:55:35.830Z,4.36
2022-12-17T07:57:26.533Z,4.40
2022-12-17T07:59:17.164Z,4.46
2022-12-17T08:01:07.879Z,4.49
2022-12-17T08:02:58.460Z,4.60
2022-12-17T08:04:48.995Z,4.65
2022-12-17T08:06:39.645Z,4.72
2022-12-17T08:08:31.972Z,4.81
2022-12-17T08:10:22.852Z,4.79
2022-12-17T08:12:13.628Z,4.77
2022-12-17T08:14:04.438Z,4.63
2022-12-17T08:15:54.857Z,4.68
2022-12-17T08:17:45.777Z,4.55
2022-12-17T08:19:36.650Z,4.47
2022-12-17T08:21:27.186Z,4.49
2022-12-17T08:23:23.982Z,4.56
2022-12-17T08:25:14.736Z,4.51
2022-12-17T08:27:05.573Z,4.49
2022-12-17T08:28:56.256Z,4.50
2022-12-17T08:30:47.373Z,4.41
2022-12-17T08:32:38.025Z,4.46
2022-12-17T08:34:28.711Z,4.38
2022-12-17T08:36:19.410Z,4.44
2022-12-17T08:38:10.153Z,4.49
2022-12-17T08:40:00.850Z,4.56
2022-12-17T08:41:54.893Z,4.59
2022-12-17T08:43:47.379Z,4.59
2022-12-17T08:45:37.995Z,4.66
2022-12-17T08:47:28.842Z,4.68
2022-12-17T08:49:19.859Z,4.69
2022-12-17T08:51:10.721Z,4.66
2022-12-17T08:53:01.336Z,4.71
2022-12-17T08:54:52.244Z,4.75
2022-12-17T08:56:43.079Z,4.80
2022-12-17T08:58:33.853Z,4.84
2022-12-17T09:00:25.212Z,4.90
2022-12-17T09:02:15.942Z,4.90
2022-12-17T09:04:06.557Z,4.93
2022-12-17T09:05:57.214Z,4.94
2022-12-17T09:07:47.845Z,4.96
2022-12-17T09:09:38.440Z,4.96
2022-12-17T09:11:29.040Z,4.95
2022-12-17T09:13:22.752Z,5.00
2022-12-17T09:15:13.557Z,4.97
2022-12-17T09:17:04.332Z,4.99
2022-12-17T09:18:55.103Z,5.00
2022-12-17T09:20:45.763Z,4.98
2022-12-17T09:22:36.604Z,4.98
2022-12-17T09:24:28.864Z,5.03
2022-12-17T09:26:19.528Z,5.03
2022-12-17T09:28:10.272Z,5.03
2022-12-17T09:30:00.992Z,5.04
2022-12-17T09:31:51.771Z,5.06
2022-12-17T09:33:42.437Z,5.12
2022-12-17T09:35:33.152Z,5.19
2022-12-17T09:37:24.386Z,5.31
2022-12-17T09:39:15.151Z,5.36
2022-12-17T09:41:07.931Z,5.45
2022-12-17T09:43:43.594Z,5.60
2022-12-17T09:45:45.078Z,5.77
2022-12-17T09:48:03.774Z,5.94
2022-12-17T09:49:54.494Z,6.04
2022-12-17T09:51:46.884Z,6.13
2022-12-17T09:53:58.867Z,6.27
2022-12-17T09:55:53.169Z,6.31
2022-12-17T09:57:54.801Z,6.35
2022-12-17T09:59:47.846Z,6.39
2022-12-17T10:01:47.403Z,6.40
2022-12-17T10:03:41.079Z,6.44
2022-12-17T10:05:40.404Z,6.51
2022-12-17T10:07:33.288Z,6.50
2022-12-17T10:09:37.381Z,6.53
2022-12-17T10:13:00.875Z,6.48
2022-12-17T10:14:51.747Z,6.42
2022-12-17T10:16:45.259Z,6.51
2022-12-17T10:18:35.921Z,6.47
2022-12-17T10:20:51.614Z,6.56
2022-12-17T10:22:42.687Z,6.53
2022-12-17T10:24:33.489Z,6.52
2022-12-17T10:26:25.229Z,6.55
2022-12-17T10:28:21.041Z,6.62
2022-12-17T10:30:12.357Z,6.58
2022-12-17T10:32:03.284Z,6.59
2022-12-17T10:33:58.000Z,6.66
2022-12-17T10:35:55.744Z,6.70
2022-12-17T10:37:46.748Z,6.71
2022-12-17T10:39:40.557Z,6.79
2022-12-17T10:41:41.069Z,6.89
2022-12-17T10:43:46.453Z,6.95
2022-12-17T10:45:40.621Z,6.98
2022-12-17T10:47:32.695Z,7.02
2022-12-17T10:49:35.205Z,7.15
2022-12-17T10:51:37.386Z,7.23
2022-12-17T10:53:42.142Z,7.29
2022-12-17T10:55:46.316Z,7.39
2022-12-17T10:57:57.512Z,7.44
2022-12-17T10:59:55.618Z,7.48
2022-12-17T11:01:46.528Z,7.52
2022-12-17T11:04:05.024Z,7.62
2022-12-17T11:05:59.597Z,7.67
2022-12-17T11:07:53.499Z,7.82
2022-12-17T11:10:08.638Z,8.00
2022-12-17T11:12:05.664Z,8.12
2022-12-17T11:14:04.127Z,8.29
2022-12-17T11:15:59.337Z,8.44
2022-12-17T11:17:50.103Z,8.50
2022-12-17T11:19:47.523Z,8.66
2022-12-17T11:21:45.873Z,8.80
2022-12-17T11:23:38.612Z,8.92
2022-12-17T11:26:06.857Z,9.03
2022-12-17T11:28:03.757Z,9.09
2022-12-17T11:29:57.360Z,9.13
2022-12-17T11:32:03.038Z,9.26
2022-12-17T11:33:58.260Z,9.40
2022-12-17T11:36:02.711Z,9.61
2022-12-17T11:38:22.440Z,9.75
2022-12-17T11:40:18.867Z,9.95
2022-12-17T11:42:38.293Z,10.25
2022-12-17T11:45:14.828Z,10.38
2022-12-17T11:47:21.690Z,10.45
2022-12-17T11:49:42.032Z,10.45
2022-12-17T11:51:47.416Z,10.59
2022-12-17T11:53:45.743Z,10.65
2022-12-17T11:55:56.180Z,10.81
2022-12-17T11:58:10.494Z,11.02
2022-12-17T12:00:08.574Z,11.28
2022-12-17T12:02:28.080Z,11.57
2022-12-17T12:04:53.638Z,11.77
2022-12-17T12:06:43.859Z,11.80
2022-12-17T12:08:46.976Z,11.88
2022-12-17T12:11:17.539Z,11.84
2022-12-17T12:13:48.898Z,11.79
2022-12-17T12:16:01.342Z,11.79
2022-12-17T12:18:13.348Z,11.77
2022-12-17T12:20:09.954Z,11.76
2022-12-17T12:22:13.792Z,11.76
2022-12-17T12:24:07.485Z,11.77
2022-12-17T12:26:06.968Z,11.86
2022-12-17T12:28:22.799Z,11.93
2022-12-17T12:30:40.077Z,12.04
2022-12-17T12:32:42.824Z,12.19
2022-12-17T12:34:37.386Z,12.29
2022-12-17T12:36:30.557Z,12.37
2022-12-17T12:38:24.726Z,12.40
2022-12-17T12:40:18.509Z,12.44
2022-12-17T12:42:26.573Z,12.54
2022-12-17T12:44:19.413Z,12.61
2022-12-17T12:46:16.766Z,12.68
2022-12-17T12:48:17.904Z,12.75
2022-12-17T12:50:42.421Z,12.78
2022-12-17T12:52:40.726Z,12.80
2022-12-17T12:54:51.763Z,12.84
2022-12-17T12:56:47.460Z,12.85
2022-12-17T12:58:47.202Z,12.91
2022-12-17T13:00:41.260Z,12.93
2022-12-17T13:02:48.996Z,13.03
2022-12-17T13:04:52.830Z,13.08
2022-12-17T13:06:56.803Z,13.11
2022-12-17T13:08:29.063Z,13.11
2022-12-17T13:10:01.247Z,13.12
2022-12-17T13:11:39.492Z,13.16
2022-12-17T13:13:31.863Z,13.19
2022-12-17T13:15:06.500Z,13.22
2022-12-17T13:17:05.487Z,13.24
2022-12-17T13:18:41.272Z,13.22
2022-12-17T13:20:26.481Z,13.29
2022-12-17T13:22:24.053Z,13.32
2022-12-17T13:23:56.654Z,13.26
2022-12-17T13:25:29.632Z,13.23
2022-12-17T13:27:01.690Z,13.27
2022-12-17T13:28:33.773Z,13.27
2022-12-17T13:30:21.973Z,13.27
2022-12-17T13:31:57.352Z,13.16
2022-12-17T13:34:07.403Z,13.11
2022-12-17T13:36:20.711Z,12.99
2022-12-17T13:38:02.315Z,12.68
2022-12-17T13:41:12.782Z,12.44
2022-12-17T13:42:46.434Z,12.35
2022-12-17T13:44:21.776Z,12.26
2022-12-17T13:45:55.771Z,12.26
2022-12-17T13:47:32.879Z,12.22
2022-12-17T13:49:12.174Z,12.12
2022-12-17T13:50:54.195Z,12.09
2022-12-17T13:52:27.743Z,12.02
2022-12-17T13:54:01.612Z,11.99
2022-12-17T13:55:33.680Z,11.93
2022-12-17T13:57:28.128Z,11.84
2022-12-17T13:59:08.380Z,11.83
2022-12-17T14:00:41.488Z,11.70
2022-12-17T14:02:31.855Z,11.73
2022-12-17T14:04:06.660Z,11.62
2022-12-17T14:05:42.673Z,11.61
2022-12-17T14:07:14.831Z,11.56
2022-12-17T14:08:48.414Z,11.58
2022-12-17T14:10:20.915Z,11.51
2022-12-17T14:12:11.541Z,11.48
2022-12-17T14:13:48.468Z,11.43
2022-12-17T14:15:25.202Z,11.43
2022-12-17T14:16:57.350Z,11.30
2022-12-17T14:18:29.463Z,11.26
2022-12-17T14:20:21.538Z,11.28
2022-12-17T14:21:53.732Z,11.20
2022-12-17T14:23:33.045Z,11.14
2022-12-17T14:25:07.030Z,11.10
2022-12-17T14:26:50.282Z,11.05
2022-12-17T14:28:39.116Z,10.99
2022-12-17T14:30:26.353Z,11.00
2022-12-17T14:32:00.854Z,10.94
2022-12-17T14:33:38.068Z,10.86
2022-12-17T14:35:27.374Z,10.84
2022-12-17T14:37:00.827Z,10.78
2022-12-17T14:38:42.014Z,10.78
2022-12-17T14:40:16.209Z,10.68
2022-12-17T14:42:07.022Z,10.63
2022-12-17T14:43:39.058Z,10.59
2022-12-17T14:45:17.160Z,10.59
2022-12-17T14:46:49.411Z,10.50
2022-12-17T14:48:45.822Z,10.48
2022-12-17T14:50:17.744Z,10.40
2022-12-17T14:51:50.494Z,10.33
2022-12-17T14:53:27.762Z,10.32
2022-12-17T14:54:59.953Z,10.23
2022-12-17T14:56:32.032Z,10.23
2022-12-17T14:58:13.116Z,10.23
2022-12-17T14:59:45.731Z,10.13
2022-12-17T15:01:17.918Z,10.10
2022-12-17T15:02:53.216Z,10.11
2022-12-17T15:04:25.669Z,10.04
2022-12-17T15:06:18.885Z,10.05
2022-12-17T15:07:52.220Z,9.99
2022-12-17T15:09:24.488Z,9.96
2022-12-17T15:10:56.518Z,9.89
2022-12-17T15:12:28.697Z,9.83
2022-12-17T15:14:01.074Z,9.73
2022-12-17T15:15:33.109Z,9.61
2022-12-17T15:17:06.235Z,9.52
2022-12-17T15:18:41.404Z,9.45
2022-12-17T15:20:18.593Z,9.42
2022-12-17T15:21:51.156Z,9.34
2022-12-17T15:23:23.923Z,9.30
2022-12-17T15:24:56.121Z,9.25
2022-12-17T15:26:28.299Z,9.18
2022-12-17T15:28:00.423Z,9.11
2022-12-17T15:29:32.522Z,9.06
2022-12-17T15:31:04.754Z,9.01
2022-12-17T15:32:36.837Z,8.97
2022-12-17T15:34:11.208Z,8.96
2022-12-17T15:35:43.700Z,8.93
2022-12-17T15:37:18.802Z,8.90
2022-12-17T15:38:54.615Z,8.85
2022-12-17T15:40:26.816Z,8.81
2022-12-17T15:42:17.389Z,8.79
2022-12-17T15:43:50.401Z,8.71
2022-12-17T15:45:25.161Z,8.68
2022-12-17T15:46:57.240Z,8.59
2022-12-17T15:48:29.658Z,8.49
2022-12-17T15:50:01.625Z,8.43
2022-12-17T15:51:33.689Z,8.36
2022-12-17T15:53:05.757Z,8.31
2022-12-17T15:54:37.905Z,8.29
2022-12-17T15:56:25.464Z,8.28
2022-12-17T15:57:58.898Z,8.22
2022-12-17T15:59:33.957Z,8.20
2022-12-17T16:01:06.945Z,8.11
2022-12-17T16:02:39.382Z,8.07
2022-12-17T16:04:17.893Z,8.03
2022-12-17T16:05:53.696Z,7.98
2022-12-17T16:07:25.873Z,7.91
2022-12-17T16:08:58.012Z,7.88
2022-12-17T16:10:30.527Z,7.88
2022-12-17T16:12:02.611Z,7.84
2022-12-17T16:13:34.666Z,7.79
2022-12-17T16:15:08.484Z,7.78
2022-12-17T16:16:40.534Z,7.69
2022-12-17T16:19:50.236Z,7.59
2022-12-17T16:21:22.283Z,7.56
2022-12-17T16:22:54.295Z,7.55
2022-12-17T16:24:26.371Z,7.47
2022-12-17T16:25:59.960Z,7.41
2022-12-17T16:27:32.075Z,7.36
2022-12-17T16:29:04.284Z,7.32
2022-12-17T16:30:36.288Z,7.29
2022-12-17T16:32:08.407Z,7.29
2022-12-17T16:33:42.519Z,7.31
2022-12-17T16:35:14.600Z,7.25
2022-12-17T16:36:46.638Z,7.23
2022-12-17T16:38:18.894Z,7.21
2022-12-17T16:39:59.582Z,7.22
2022-12-17T16:41:32.933Z,7.22
2022-12-17T16:43:04.925Z,7.23
2022-12-17T16:44:37.161Z,7.22
2022-12-17T16:46:39.153Z,7.24
2022-12-17T16:48:11.264Z,7.16
2022-12-17T16:49:43.367Z,7.14
2022-12-17T16:51:27.926Z,7.20
2022-12-17T16:53:00.819Z,7.20
2022-12-17T16:54:34.052Z,7.19
2022-12-17T16:56:06.509Z,7.23
2022-12-17T16:57:38.521Z,7.23
2022-12-17T16:59:11.698Z,7.23
2022-12-17T17:00:44.047Z,7.27
2022-12-17T17:02:16.708Z,7.26
2022-12-17T17:03:49.958Z,7.28
2022-12-17T17:05:22.052Z,7.27
2022-12-17T17:06:56.354Z,7.30
2022-12-17T17:08:31.308Z,7.36
2022-12-17T17:10:03.428Z,7.34
2022-12-17T17:11:35.990Z,7.39
2022-12-17T17:13:08.036Z,7.39
2022-12-17T17:14:40.817Z,7.41
2022-12-17T17:16:12.936Z,7.41
2022-12-17T17:19:19.600Z,7.45
2022-12-17T17:20:51.698Z,7.43
2022-12-17T17:22:23.789Z,7.46
2022-12-17T17:23:58.869Z,7.48
2022-12-17T17:25:50.231Z,7.47
2022-12-17T17:27:22.923Z,7.47
2022-12-17T17:28:55.034Z,7.46
2022-12-17T17:30:28.235Z,7.48
2022-12-17T17:32:15.525Z,7.48
2022-12-17T17:33:49.643Z,7.50
2022-12-17T17:35:21.661Z,7.49
2022-12-17T17:36:53.780Z,7.50
2022-12-17T17:38:25.905Z,7.50
2022-12-17T17:39:57.991Z,7.50
2022-12-17T17:41:32.485Z,7.53
2022-12-17T17:43:04.476Z,7.53
2022-12-17T17:44:37.534Z,7.55
2022-12-17T17:46:12.644Z,7.58
2022-12-17T17:47:44.798Z,7.54
2022-12-17T17:49:17.412Z,7.52
2022-12-17T17:51:03.888Z,7.58
2022-12-17T17:54:14.508Z,7.48
2022-12-17T17:55:46.588Z,7.55
2022-12-17T17:57:18.655Z,7.54
2022-12-17T17:58:56.108Z,7.56
2022-12-17T18:00:28.621Z,7.56
2022-12-17T18:02:01.297Z,7.56
2022-12-17T18:03:33.631Z,7.54
2022-12-17T18:05:06.341Z,7.53
2022-12-17T18:06:43.014Z,7.55
2022-12-17T18:08:25.147Z,7.52
2022-12-17T18:09:57.717Z,7.47
2022-12-17T18:11:31.152Z,7.50
2022-12-17T18:13:22.100Z,7.47
2022-12-17T18:16:47.728Z,7.47
2022-12-17T18:18:21.993Z,7.55
2022-12-17T18:19:54.047Z,7.50
2022-12-17T18:21:27.564Z,7.55
2022-12-17T18:22:59.445Z,7.60
2022-12-17T18:24:31.463Z,7.52
2022-12-17T18:26:18.100Z,7.56
2022-12-17T18:27:53.074Z,7.55
2022-12-17T18:29:27.152Z,7.56
2022-12-17T18:30:59.576Z,7.55
2022-12-17T18:32:31.750Z,7.56
2022-12-17T18:34:04.986Z,7.60
2022-12-17T18:35:37.020Z,7.60
2022-12-17T18:37:09.239Z,7.62
2022-12-17T18:38:41.989Z,7.64
2022-12-17T18:40:14.323Z,7.64
2022-12-17T18:42:05.992Z,7.67
2022-12-17T18:43:40.168Z,7.70
2022-12-17T18:45:12.187Z,7.68
2022-12-17T18:46:44.435Z,7.69
2022-12-17T18:48:16.535Z,7.70
2022-12-17T18:49:48.699Z,7.70
2022-12-17T18:51:22.411Z,7.73
2022-12-17T18:52:54.571Z,7.72
2022-12-17T18:54:28.627Z,7.75
2022-12-17T18:56:08.417Z,7.76
2022-12-17T18:57:41.061Z,7.76
2022-12-17T18:59:14.016Z,7.75
2022-12-17T19:00:46.138Z,7.76
2022-12-17T19:02:18.874Z,7.75
2022-12-17T19:03:51.713Z,7.77
2022-12-17T19:05:23.753Z,7.76
2022-12-17T19:06:58.815Z,7.76
2022-12-17T19:08:30.863Z,7.73
2022-12-17T19:10:03.134Z,7.76
2022-12-17T19:11:41.936Z,7.78
2022-12-17T19:13:15.552Z,7.77
2022-12-17T19:14:47.564Z,7.78
2022-12-17T19:16:22.599Z,7.79
2022-12-17T19:17:54.658Z,7.78
2022-12-17T19:19:27.044Z,7.78
2022-12-17T19:20:59.587Z,7.77
2022-12-17T19:22:31.594Z,7.78
2022-12-17T19:24:06.814Z,7.79
2022-12-17T19:25:38.874Z,7.77
2022-12-17T19:27:11.096Z,7.77
2022-12-17T19:28:44.914Z,7.80
2022-12-17T19:30:17.507Z,7.77
2022-12-17T19:31:49.769Z,7.77
2022-12-17T19:33:22.019Z,7.77
2022-12-17T19:34:54.168Z,7.80
2022-12-17T19:36:28.605Z,7.79
2022-12-17T19:38:03.892Z,7.76
2022-12-17T19:39:35.910Z,7.78
2022-12-17T19:41:15.187Z,7.82
2022-12-17T19:42:47.301Z,7.79
2022-12-17T19:44:22.564Z,7.78
2022-12-17T19:45:54.638Z,7.79
2022-12-17T19:47:27.084Z,7.78
2022-12-17T19:48:59.601Z,7.77
2022-12-17T19:50:31.614Z,7.79
2022-12-17T19:52:03.669Z,7.78
2022-12-17T19:53:36.674Z,7.80
2022-12-17T19:55:09.180Z,7.81
2022-12-17T19:56:42.545Z,7.83
2022-12-17T19:58:14.917Z,7.80
2022-12-17T19:59:47.189Z,7.79
2022-12-17T20:01:21.803Z,7.80
2022-12-17T20:02:54.091Z,7.78
2022-12-17T20:04:26.247Z,7.78
2022-12-17T20:05:59.346Z,7.79
2022-12-17T20:07:31.300Z,7.78
2022-12-17T20:09:06.013Z,7.81
2022-12-17T20:10:38.719Z,7.79
2022-12-17T20:12:11.363Z,7.81
2022-12-17T20:13:43.391Z,7.80
2022-12-17T20:15:15.645Z,7.83
2022-12-17T20:16:53.328Z,7.84
2022-12-17T20:18:25.448Z,7.82
2022-12-17T20:19:58.103Z,7.83
2022-12-17T20:21:30.346Z,7.86
2022-12-17T20:23:02.369Z,7.83
2022-12-17T20:24:34.462Z,7.84
2022-12-17T20:26:08.848Z,7.90
2022-12-17T20:27:41.017Z,7.86
2022-12-17T20:29:13.138Z,7.94
2022-12-17T20:30:45.371Z,7.99
2022-12-17T20:32:19.697Z,8.03
2022-12-17T20:33:51.817Z,8.08
2022-12-17T20:35:23.867Z,8.10
2022-12-17T20:36:55.913Z,8.15
2022-12-17T20:38:27.963Z,8.16
2022-12-17T20:40:00.017Z,8.17
2022-12-17T20:41:32.651Z,8.21
2022-12-17T20:43:04.990Z,8.20
2022-12-17T20:44:36.961Z,8.20
2022-12-17T20:46:10.053Z,8.24
2022-12-17T20:47:42.090Z,8.23
2022-12-17T20:49:15.094Z,8.24
2022-12-17T20:50:47.180Z,8.21
2022-12-17T20:52:19.556Z,8.19
2022-12-17T20:53:53.747Z,8.20
2022-12-17T20:55:30.955Z,8.19
2022-12-17T20:57:03.374Z,8.19
2022-12-17T20:58:36.187Z,8.20
2022-12-17T21:00:10.122Z,8.22
2022-12-17T21:01:42.280Z,8.20
2022-12-17T21:03:14.477Z,8.20
2022-12-17T21:04:49.668Z,8.21
2022-12-17T21:06:23.072Z,8.19
2022-12-17T21:07:55.070Z,8.14
2022-12-17T21:09:29.711Z,8.17
2022-12-17T21:11:01.853Z,8.14
2022-12-17T21:12:53.757Z,8.13
2022-12-17T21:14:28.079Z,8.13
2022-12-17T21:16:16.905Z,8.14
2022-12-17T21:17:49.048Z,8.09
2022-12-17T21:19:21.269Z,8.10
2022-12-17T21:20:57.064Z,8.10
2022-12-17T21:22:29.110Z,8.06
2022-12-17T21:24:02.081Z,8.05
2022-12-17T21:25:34.133Z,8.04
2022-12-17T21:27:11.122Z,8.04
2022-12-17T21:28:48.292Z,7.99
2022-12-17T21:30:20.498Z,7.99
2022-12-17T21:31:52.872Z,7.97
2022-12-17T21:33:25.004Z,7.94
2022-12-17T21:34:57.320Z,7.95
2022-12-17T21:36:30.618Z,7.95
2022-12-17T21:38:03.069Z,7.94
2022-12-17T21:39:35.056Z,7.89
2022-12-17T21:41:10.142Z,7.88
2022-12-17T21:43:00.866Z,7.88
2022-12-17T21:44:32.981Z,7.83
2022-12-17T21:46:05.828Z,7.83
2022-12-17T21:47:37.883Z,7.80
2022-12-17T21:49:10.469Z,7.75
2022-12-17T21:52:14.588Z,7.70
2022-12-17T21:53:47.120Z,7.59
2022-12-17T21:55:19.144Z,7.60
2022-12-17T21:56:51.217Z,7.60
2022-12-17T21:58:23.313Z,7.59
2022-12-17T21:59:55.331Z,7.53
2022-12-17T22:01:30.362Z,7.62
2022-12-17T22:03:02.673Z,7.60
2022-12-17T22:04:34.755Z,7.59
2022-12-17T22:06:12.296Z,7.63
2022-12-17T22:07:48.898Z,7.57
2022-12-17T22:09:39.591Z,7.60
2022-12-17T22:11:19.279Z,7.60
2022-12-17T22:13:10.492Z,7.57
2022-12-17T22:14:42.482Z,7.59
2022-12-17T22:16:14.695Z,7.53
2022-12-17T22:17:46.740Z,7.48
2022-12-17T22:19:23.503Z,7.50
2022-12-17T22:21:00.128Z,7.49
2022-12-17T22:22:32.206Z,7.35
2022-12-17T22:24:04.816Z,7.43
2022-12-17T22:25:38.555Z,7.48
2022-12-17T22:27:10.669Z,7.36
2022-12-17T22:28:44.331Z,7.31
2022-12-17T22:30:36.388Z,7.30
2022-12-17T22:32:29.007Z,7.36
2022-12-17T22:35:58.246Z,7.38
2022-12-17T22:37:51.829Z,7.48
2022-12-17T22:40:21.582Z,7.45
2022-12-17T22:42:39.908Z,7.46
2022-12-17T22:44:33.578Z,7.47
2022-12-17T22:55:34.969Z,7.38
2022-12-17T22:57:35.376Z,7.45
2022-12-17T22:59:02.501Z,7.40
2022-12-17T23:00:36.228Z,7.29
2022-12-17T23:02:09.566Z,7.28
2022-12-17T23:03:41.930Z,7.29
2022-12-17T23:05:15.039Z,7.22
2022-12-17T23:06:47.545Z,7.25
2022-12-17T23:08:19.691Z,7.26
2022-12-17T23:09:51.736Z,7.25
2022-12-17T23:11:25.690Z,7.29
2022-12-17T23:12:57.915Z,7.27
2022-12-17T23:14:29.938Z,7.28
2022-12-17T23:16:02.592Z,7.27
2022-12-17T23:17:35.524Z,7.27
2022-12-17T23:19:08.536Z,7.31
2022-12-17T23:20:40.871Z,7.29
2022-12-17T23:22:16.229Z,7.30
2022-12-17T23:23:54.675Z,7.29
2022-12-17T23:25:27.602Z,7.30
2022-12-17T23:26:59.595Z,7.28
2022-12-17T23:28:31.648Z,7.29
2022-12-17T23:30:05.394Z,7.29
2022-12-17T23:31:40.585Z,7.31
2022-12-17T23:33:12.689Z,7.28
2022-12-17T23:34:44.720Z,7.27
2022-12-17T23:36:21.337Z,7.32
2022-12-17T23:37:53.690Z,7.29
2022-12-17T23:39:25.837Z,7.28
2022-12-17T23:41:03.519Z,7.31
2022-12-17T23:42:35.623Z,7.26